Time;durP1;ratioP1;P1;durP2;ratioP2;P2;SDS_P1;SDS_P2;PMS_P1;PMS_P2;Temp;Humidity;BMP_temperature;BMP_pressure;BME280_temperature;BME280_humidity;BME280_pressure;Samples;Min_cycle;Max_cycle;Signal;HPM_P1;HPM_P2
2022/09/20 00:01:09;;;;;;;5.70;2.00;;;12.30;1.00;;;;;;4984305;28;21174;-63
2022/09/20 00:03:39;;;;;;;3.70;2.23;;;12.10;6.60;;;;;;4989474;28;20244;-62
2022/09/20 00:06:10;;;;;;;11.50;2.90;;;12.10;26.10;;;;;;4983485;28;20789;-61
2022/09/20 00:08:36;;;;;;;5.93;2.60;;;12.00;51.40;;;;;;4991857;28;20774;-61
2022/09/20 00:11:08;;;;;;;4.57;2.27;;;11.80;69.00;;;;;;4989190;28;20896;-60
2022/09/20 00:13:35;;;;;;;3.80;1.57;;;11.50;99.90;;;;;;4984959;28;20978;-62
2022/09/20 00:16:05;;;;;;;1.77;1.20;;;11.40;99.90;;;;;;4984787;28;20449;-61
2022/09/20 00:18:31;;;;;;;2.33;1.70;;;11.20;99.90;;;;;;4989841;28;20443;-60
2022/09/20 00:20:56;;;;;;;4.23;1.53;;;11.20;99.90;;;;;;4984050;28;21149;-60
2022/09/20 00:23:22;;;;;;;3.43;2.13;;;11.20;99.90;;;;;;4987750;28;20194;-62
2022/09/20 00:25:57;;;;;;;1.97;1.57;;;11.20;99.90;;;;;;4983069;28;20187;-60
2022/09/20 00:28:24;;;;;;;4.57;1.67;;;11.20;99.90;;;;;;4990440;28;20285;-61
2022/09/20 00:30:51;;;;;;;4.03;2.00;;;11.20;99.90;;;;;;4986034;28;20966;-61
2022/09/20 00:33:16;;;;;;;2.83;2.00;;;11.30;99.90;;;;;;4983449;28;20428;-59
2022/09/20 00:35:43;;;;;;;5.50;2.17;;;11.40;99.90;;;;;;4982116;28;20475;-59
2022/09/20 00:38:09;;;;;;;2.73;2.30;;;11.50;99.90;;;;;;4984495;28;20225;-60
2022/09/20 00:40:35;;;;;;;6.63;2.40;;;11.50;99.90;;;;;;4984048;28;20807;-60
2022/09/20 00:43:00;;;;;;;2.70;2.40;;;11.50;99.90;;;;;;4982511;28;20987;-60
2022/09/20 00:45:30;;;;;;;3.40;2.60;;;11.60;99.90;;;;;;4987195;28;20644;-60
2022/09/20 00:48:05;;;;;;;3.77;2.53;;;11.60;99.90;;;;;;4985040;28;20194;-60
2022/09/20 00:50:57;;;;;;;4.23;2.87;;;11.60;99.90;;;;;;4985853;28;20939;-61
2022/09/20 00:53:32;;;;;;;3.30;3.00;;;11.50;99.90;;;;;;4986468;28;20489;-61
2022/09/20 00:56:05;;;;;;;3.60;3.30;;;11.50;99.90;;;;;;4985725;28;20514;-61
2022/09/20 00:58:36;;;;;;;7.20;3.70;;;11.60;99.90;;;;;;4986385;28;21017;-61
2022/09/20 01:01:04;;;;;;;5.00;3.80;;;11.60;99.90;;;;;;4983830;28;20439;-61
2022/09/20 01:03:32;;;;;;;4.17;3.43;;;11.60;99.90;;;;;;4990011;28;20416;-61
2022/09/20 01:06:02;;;;;;;4.20;3.80;;;11.50;99.90;;;;;;4982901;28;20425;-60
2022/09/20 01:08:28;;;;;;;4.43;4.03;;;11.50;99.90;;;;;;4995240;28;20477;-61
2022/09/20 01:10:53;;;;;;;4.67;4.20;;;11.50;99.90;;;;;;4979707;28;20937;-61
2022/09/20 01:13:19;;;;;;;5.73;4.20;;;11.60;99.90;;;;;;4981666;28;20453;-60
2022/09/20 01:15:47;;;;;;;5.20;4.00;;;11.70;99.90;;;;;;4989945;28;20209;-60
2022/09/20 01:18:14;;;;;;;5.87;4.63;;;11.80;99.90;;;;;;4989709;28;20225;-60
2022/09/20 01:20:43;;;;;;;4.73;3.93;;;11.80;99.90;;;;;;4987450;28;20420;-61
2022/09/20 01:23:19;;;;;;;5.67;4.13;;;11.80;99.90;;;;;;4985221;28;20444;-60
2022/09/20 01:25:59;;;;;;;8.13;3.47;;;11.80;99.90;;;;;;4987253;28;20424;-61
2022/09/20 01:28:26;;;;;;;6.47;3.17;;;11.60;99.90;;;;;;4986014;28;20918;-61
2022/09/20 01:31:07;;;;;;;6.30;3.37;;;11.70;99.90;;;;;;4985541;28;20464;-61
2022/09/20 01:33:45;;;;;;;5.60;2.90;;;11.70;99.90;;;;;;4987904;28;20424;-60
2022/09/20 01:36:17;;;;;;;3.40;3.10;;;11.70;99.90;;;;;;4979156;28;20449;-61
2022/09/20 01:38:53;;;;;;;5.43;2.80;;;11.80;99.90;;;;;;4980185;28;20546;-61
2022/09/20 01:41:25;;;;;;;5.10;3.20;;;11.70;99.90;;;;;;4989846;28;20445;-61
2022/09/20 01:44:13;;;;;;;6.40;3.30;;;11.70;99.90;;;;;;4986125;28;20710;-61
2022/09/20 01:46:41;;;;;;;6.97;2.83;;;11.70;99.90;;;;;;4989278;28;20424;-62
2022/09/20 01:49:10;;;;;;;2.60;2.40;;;11.80;99.90;;;;;;4989531;28;20420;-63
2022/09/20 01:52:13;;;;;;;4.30;3.10;;;11.90;99.90;;;;;;4988193;28;20445;-60
2022/09/20 01:55:16;;;;;;;4.90;3.30;;;11.80;99.90;;;;;;4988771;28;20424;-61
2022/09/20 01:58:00;;;;;;;4.63;3.50;;;11.80;99.90;;;;;;4988771;28;20971;-61
2022/09/20 02:00:30;;;;;;;3.77;3.37;;;11.80;99.90;;;;;;4996647;28;20415;-62
2022/09/20 02:03:32;;;;;;;4.70;3.30;;;11.80;99.90;;;;;;4976922;28;20468;-61
2022/09/20 02:06:12;;;;;;;4.00;3.70;;;11.80;99.90;;;;;;4984695;28;20422;-61
2022/09/20 02:09:04;;;;;;;4.90;4.40;;;11.70;99.90;;;;;;4988071;28;20426;-61
2022/09/20 02:12:23;;;;;;;4.13;3.67;;;11.60;99.90;;;;;;4977050;28;20439;-61
2022/09/20 02:15:31;;;;;;;5.60;3.60;;;11.50;99.90;;;;;;4891729;29;20965;-61
2022/09/20 02:18:21;;;;;;;4.13;3.73;;;11.60;99.90;;;;;;4986957;28;20473;-60
2022/09/20 02:21:02;;;;;;;4.30;3.90;;;11.50;99.90;;;;;;4989817;28;20451;-61
2022/09/20 02:23:47;;;;;;;3.67;3.37;;;11.50;99.90;;;;;;4988944;28;20420;-61
2022/09/20 02:26:19;;;;;;;3.43;3.07;;;11.70;99.90;;;;;;4990257;28;20432;-61
2022/09/20 02:29:05;;;;;;;4.73;3.00;;;11.70;99.90;;;;;;4994424;28;20779;-61
2022/09/20 02:31:43;;;;;;;8.00;3.43;;;11.70;99.90;;;;;;4991836;28;20453;-62
2022/09/20 02:34:54;;;;;;;4.23;3.60;;;11.70;99.90;;;;;;4991211;28;20423;-60
2022/09/20 02:37:52;;;;;;;4.20;3.80;;;11.60;99.90;;;;;;4983225;28;20925;-61
2022/09/20 02:40:39;;;;;;;5.20;3.20;;;11.70;99.90;;;;;;4984171;28;20486;-61
2022/09/20 02:43:34;;;;;;;5.07;3.27;;;11.70;99.90;;;;;;4983877;28;20493;-60
2022/09/20 02:46:23;;;;;;;3.90;3.20;;;11.70;99.90;;;;;;4991270;28;20446;-61
2022/09/20 02:49:11;;;;;;;3.30;3.00;;;11.60;99.90;;;;;;4976460;28;20959;-61
2022/09/20 02:51:43;;;;;;;5.77;3.70;;;11.60;99.90;;;;;;4990547;28;20416;-61
2022/09/20 02:54:24;;;;;;;3.10;2.80;;;11.70;99.90;;;;;;4987190;28;20437;-60
2022/09/20 02:57:20;;;;;;;3.80;3.17;;;11.70;99.90;;;;;;4985175;28;20453;-61
2022/09/20 02:59:53;;;;;;;4.47;3.53;;;11.70;99.90;;;;;;4986954;28;20465;-61
2022/09/20 03:02:43;;;;;;;4.53;3.30;;;11.80;99.90;;;;;;4986485;28;20751;-61
2022/09/20 03:05:28;;;;;;;4.53;3.37;;;11.90;99.90;;;;;;4986817;28;20461;-61
2022/09/20 03:08:37;;;;;;;6.70;3.80;;;11.90;99.90;;;;;;4983309;28;20462;-61
2022/09/20 03:11:46;;;;;;;4.80;3.50;;;11.80;99.90;;;;;;4987985;28;20441;-61
2022/09/20 03:14:30;;;;;;;3.73;2.83;;;11.80;99.90;;;;;;4987009;28;20933;-56
2022/09/20 03:17:13;;;;;;;6.43;2.97;;;11.80;99.90;;;;;;4993359;28;20444;-56
2022/09/20 03:20:14;;;;;;;5.27;3.33;;;11.80;99.90;;;;;;4999593;28;20444;-55
2022/09/20 03:22:56;;;;;;;5.10;3.53;;;11.80;99.90;;;;;;4958334;28;20453;-54
2022/09/20 03:25:49;;;;;;;6.47;3.17;;;14.20;99.90;;;;;;4995018;28;20452;-53
2022/09/20 03:28:52;;;;;;;4.30;3.37;;;11.90;99.90;;;;;;4987421;28;20446;-57
2022/09/20 03:31:31;;;;;;;3.93;3.17;;;11.80;79.00;;;;;;4994834;28;20419;-53
2022/09/20 03:34:24;;;;;;;5.43;3.60;;;11.70;82.20;;;;;;4988162;28;20423;-55
2022/09/20 03:36:55;;;;;;;4.10;2.90;;;11.70;88.90;;;;;;4990053;28;20423;-55
2022/09/20 03:39:58;;;;;;;6.17;3.53;;;11.60;56.50;;;;;;4986254;28;20420;-57
2022/09/20 03:42:28;;;;;;;2.80;2.60;;;11.60;56.50;;;;;;4989192;28;20521;-56
2022/09/20 03:45:28;;;;;;;3.70;3.20;;;11.50;57.20;;;;;;4999570;28;20456;-55
2022/09/20 03:47:59;;;;;;;2.97;2.77;;;11.50;74.20;;;;;;4977969;28;20423;-54
2022/09/20 03:50:49;;;;;;;3.50;3.20;;;11.60;72.70;;;;;;4990204;28;20442;-56
2022/09/20 03:53:32;;;;;;;5.10;3.57;;;11.60;79.50;;;;;;4994535;28;21025;-55
2022/09/20 03:56:27;;;;;;;4.80;2.33;;;11.60;74.30;;;;;;4981351;28;21938;-55
2022/09/20 03:59:25;;;;;;;3.10;2.60;;;11.70;57.60;;;;;;4978689;28;20448;-56
2022/09/20 04:02:23;;;;;;;4.53;2.87;;;11.70;72.50;;;;;;4984920;28;20485;-55
2022/09/20 04:05:03;;;;;;;3.40;3.10;;;11.70;59.50;;;;;;4998507;28;20408;-55
2022/09/20 04:08:02;;;;;;;3.73;3.10;;;11.70;66.10;;;;;;4985145;28;20807;-54
2022/09/20 04:10:52;;;;;;;3.23;2.77;;;11.80;57.60;;;;;;4960583;28;20515;-54
2022/09/20 04:13:36;;;;;;;4.87;4.30;;;11.80;57.30;;;;;;4993845;28;20456;-55
2022/09/20 04:16:39;;;;;;;5.07;4.30;;;11.80;56.00;;;;;;4976658;28;20435;-52
2022/09/20 04:19:28;;;;;;;5.73;4.30;;;11.90;52.20;;;;;;4988503;28;20774;-54
2022/09/20 04:22:01;;;;;;;6.87;4.40;;;11.90;39.10;;;;;;4992494;28;21013;-56
2022/09/20 04:24:36;;;;;;;6.60;5.40;;;11.80;41.20;;;;;;4991005;28;20449;-54
2022/09/20 04:27:21;;;;;;;5.63;5.13;;;11.80;52.80;;;;;;4988090;28;20463;-55
2022/09/20 04:30:18;;;;;;;8.70;6.10;;;12.00;49.10;;;;;;4992899;28;20473;-53
2022/09/20 04:33:16;;;;;;;7.70;6.40;;;12.00;46.80;;;;;;4997919;28;20531;-55
2022/09/20 04:38:28;;;;;;;10.10;6.60;;;11.90;56.80;;;;;;4997755;28;20435;-55
2022/09/20 04:41:33;;;;;;;6.83;5.17;;;11.90;48.00;;;;;;4996378;28;20432;-54
2022/09/20 04:44:29;;;;;;;7.13;5.70;;;11.90;51.80;;;;;;4993079;28;20505;-57
2022/09/20 04:47:12;;;;;;;9.13;6.20;;;11.90;54.60;;;;;;4996043;28;20452;-55
2022/09/20 04:49:52;;;;;;;6.90;6.20;;;11.90;46.60;;;;;;4971424;28;20444;-54
2022/09/20 04:52:31;;;;;;;9.47;5.70;;;12.00;51.70;;;;;;4993922;28;20419;-56
2022/09/20 04:55:14;;;;;;;8.97;6.90;;;12.00;39.00;;;;;;4996296;28;20453;-55
2022/09/20 04:58:13;;;;;;;9.50;6.47;;;11.90;42.90;;;;;;4991042;28;20971;-55
2022/09/20 05:01:22;;;;;;;8.33;5.43;;;11.90;46.60;;;;;;4992817;28;20434;-56
2022/09/20 05:04:09;;;;;;;9.50;6.80;;;12.00;41.30;;;;;;4990096;28;20433;-53
2022/09/20 05:06:53;;;;;;;10.77;6.07;;;12.00;47.30;;;;;;4994917;28;20783;-55
2022/09/20 05:09:49;;;;;;;7.00;6.20;;;12.00;41.40;;;;;;4994389;28;20456;-57
2022/09/20 05:12:17;;;;;;;7.03;5.43;;;12.00;41.80;;;;;;4991740;28;20424;-56
2022/09/20 05:15:06;;;;;;;13.60;7.00;;;12.00;54.90;;;;;;4995212;28;20451;-53
2022/09/20 05:17:46;;;;;;;9.27;5.40;;;12.10;51.90;;;;;;5001895;28;20477;-55
2022/09/20 05:20:48;;;;;;;12.50;5.80;;;12.10;36.10;;;;;;4988991;28;20958;-55
2022/09/20 05:23:32;;;;;;;6.07;5.07;;;12.30;14.80;;;;;;4991375;28;20448;-53
2022/09/20 05:26:17;;;;;;;9.70;6.07;;;12.20;1.00;;;;;;4991590;28;20439;-54
2022/09/20 05:29:00;;;;;;;7.43;5.33;;;12.10;1.00;;;;;;4995413;28;20445;-56
2022/09/20 05:31:53;;;;;;;7.30;5.27;;;12.20;1.00;;;;;;5000133;28;20457;-53
2022/09/20 05:34:54;;;;;;;16.00;5.60;;;12.20;1.00;;;;;;4999159;28;20467;-55
2022/09/20 05:37:38;;;;;;;9.00;6.23;;;12.10;1.00;;;;;;4910400;29;20458;-55
2022/09/20 05:40:27;;;;;;;9.00;7.00;;;12.10;1.00;;;;;;4990132;28;20459;-54
2022/09/20 05:43:12;;;;;;;7.53;6.30;;;12.20;1.00;;;;;;4987965;28;20464;-55
2022/09/20 05:46:15;;;;;;;7.70;6.60;;;12.20;1.00;;;;;;4993056;28;20428;-54
2022/09/20 05:48:55;;;;;;;8.57;6.30;;;12.20;1.00;;;;;;4999899;28;20423;-55
2022/09/20 05:51:51;;;;;;;15.40;6.37;;;12.20;1.00;;;;;;4991060;28;20920;-57
2022/09/20 05:54:38;;;;;;;10.50;7.00;;;12.10;1.00;;;;;;4990484;28;20420;-54
2022/09/20 05:57:28;;;;;;;8.63;6.50;;;12.00;1.00;;;;;;4988180;28;20979;-57
2022/09/20 06:00:12;;;;;;;10.37;6.60;;;12.10;1.00;;;;;;4987769;28;20456;-55
2022/09/20 06:03:10;;;;;;;12.83;8.03;;;12.10;1.00;;;;;;4989954;28;20794;-53
2022/09/20 06:06:01;;;;;;;16.20;7.70;;;12.10;1.00;;;;;;4993391;28;20515;-54
2022/09/20 06:08:58;;;;;;;12.63;7.67;;;12.10;1.00;;;;;;4992845;28;20935;-55
2022/09/20 06:11:36;;;;;;;9.67;7.63;;;12.10;1.00;;;;;;4974421;28;20452;-54
2022/09/20 06:14:39;;;;;;;10.33;7.67;;;12.10;1.00;;;;;;4986088;28;20834;-54
2022/09/20 06:17:26;;;;;;;15.60;8.50;;;12.10;1.00;;;;;;5006523;28;20424;-55
2022/09/20 06:20:22;;;;;;;11.10;8.00;;;12.00;1.00;;;;;;4988970;28;20455;-55
2022/09/20 06:22:53;;;;;;;10.67;7.97;;;12.00;1.00;;;;;;4989669;28;20456;-57
2022/09/20 06:25:36;;;;;;;12.20;8.40;;;12.10;1.00;;;;;;4988045;28;20932;-56
2022/09/20 06:28:16;;;;;;;11.23;7.83;;;12.20;1.00;;;;;;4989390;28;20780;-56
2022/09/20 06:30:48;;;;;;;16.50;8.60;;;12.20;1.00;;;;;;4994995;28;20415;-55
2022/09/20 06:33:24;;;;;;;12.60;8.93;;;12.20;1.00;;;;;;4982618;28;20536;-57
2022/09/20 06:42:22;;;;;;;9.30;5.80;;;12.70;1.00;;;;;;4985952;28;20448;-56
2022/09/20 06:44:48;;;;;;;8.50;6.37;;;12.90;1.00;;;;;;4988740;28;20460;-54
2022/09/20 06:47:14;;;;;;;8.30;6.47;;;13.00;1.00;;;;;;4997394;28;20420;-53
2022/09/20 06:49:41;;;;;;;7.60;6.33;;;13.10;1.00;;;;;;4994450;28;20412;-56
2022/09/20 06:52:11;;;;;;;6.73;5.20;;;13.10;1.00;;;;;;4993686;28;20427;-55
2022/09/20 06:54:37;;;;;;;10.13;5.53;;;13.20;1.00;;;;;;4986436;28;20476;-55
2022/09/20 06:57:04;;;;;;;7.50;5.53;;;13.20;1.00;;;;;;4989136;28;20544;-56
2022/09/20 06:59:30;;;;;;;7.00;6.00;;;13.30;1.00;;;;;;5009262;28;20177;-54
2022/09/20 07:01:56;;;;;;;6.97;5.93;;;13.30;1.00;;;;;;5002839;28;20438;-56
2022/09/20 07:04:25;;;;;;;8.03;6.10;;;13.40;1.00;;;;;;5002118;28;20764;-52
2022/09/20 07:06:52;;;;;;;6.97;5.60;;;13.40;1.00;;;;;;5010900;28;20579;-57
2022/09/20 07:09:17;;;;;;;6.17;5.67;;;13.50;1.00;;;;;;4977787;28;20464;-57
2022/09/20 07:11:45;;;;;;;6.90;6.20;;;13.50;1.00;;;;;;4998390;28;20522;-55
2022/09/20 07:14:10;;;;;;;9.00;6.47;;;13.40;1.00;;;;;;4997807;28;20194;-53
2022/09/20 07:16:37;;;;;;;8.60;6.30;;;13.50;1.00;;;;;;4986901;28;20461;-57
2022/09/20 07:19:04;;;;;;;10.07;6.23;;;13.50;1.00;;;;;;4988638;28;20679;-54
2022/09/20 07:21:30;;;;;;;9.73;6.43;;;13.60;1.00;;;;;;4996039;28;20508;-55
2022/09/20 07:23:56;;;;;;;9.50;6.10;;;13.60;1.00;;;;;;4973542;28;20890;-56
2022/09/20 07:26:27;;;;;;;12.53;5.93;;;13.60;1.00;;;;;;4988966;28;20186;-54
2022/09/20 07:28:53;;;;;;;8.30;6.73;;;13.60;1.00;;;;;;4987094;28;20533;-57
2022/09/20 07:31:21;;;;;;;9.43;6.90;;;13.30;1.00;;;;;;4991654;28;20564;-55
2022/09/20 07:33:47;;;;;;;16.23;8.30;;;13.00;1.00;;;;;;4987284;28;20895;-56
2022/09/20 07:36:13;;;;;;;13.30;8.30;;;12.80;1.00;;;;;;4990293;28;20449;-56
2022/09/20 07:38:40;;;;;;;12.93;7.80;;;12.70;1.00;;;;;;4992822;28;20272;-54
2022/09/20 07:41:06;;;;;;;9.93;7.77;;;12.80;1.00;;;;;;5003451;28;20843;-54
2022/09/20 07:43:32;;;;;;;8.43;7.00;;;12.60;1.00;;;;;;4987501;28;20454;-56
2022/09/20 07:45:58;;;;;;;13.00;7.90;;;12.50;1.00;;;;;;4985254;28;21032;-55
2022/09/20 07:48:28;;;;;;;9.80;7.80;;;12.50;1.00;;;;;;4986659;28;20454;-56
2022/09/20 07:50:56;;;;;;;10.87;8.50;;;12.50;1.00;;;;;;4989240;28;20449;-56
2022/09/20 07:53:22;;;;;;;13.87;8.13;;;12.70;1.00;;;;;;4987220;28;20437;-54
2022/09/20 07:56:10;;;;;;;9.97;7.57;;;12.80;1.00;;;;;;4990152;28;20459;-56
2022/09/20 07:58:35;;;;;;;10.50;8.57;;;12.80;1.00;;;;;;4993646;28;20973;-56
2022/09/20 08:01:07;;;;;;;16.73;10.10;;;12.90;1.00;;;;;;5009285;28;20486;-53
2022/09/20 08:03:33;;;;;;;15.17;9.40;;;13.00;1.00;;;;;;5011791;28;20233;-56
2022/09/20 08:06:01;;;;;;;12.60;9.03;;;13.10;1.00;;;;;;5006105;28;20957;-53
2022/09/20 08:08:27;;;;;;;11.70;9.87;;;13.10;1.00;;;;;;4997888;28;20468;-57
2022/09/20 08:11:02;;;;;;;17.67;9.07;;;13.10;1.00;;;;;;4995313;28;20436;-57
2022/09/20 08:13:28;;;;;;;13.80;9.93;;;13.00;1.00;;;;;;5009904;28;20467;-54
2022/09/20 08:16:04;;;;;;;12.70;9.80;;;13.10;1.00;;;;;;5013774;28;20444;-53
2022/09/20 08:18:30;;;;;;;12.70;9.43;;;13.20;1.00;;;;;;4998857;28;20472;-55
2022/09/20 08:21:06;;;;;;;14.40;9.30;;;13.40;1.00;;;;;;4995256;28;21029;-57
2022/09/20 08:23:40;;;;;;;12.50;9.10;;;13.40;1.00;;;;;;4993781;28;20221;-51
2022/09/20 08:26:11;;;;;;;10.80;8.67;;;13.60;1.00;;;;;;4993690;28;20426;-54
2022/09/20 08:28:37;;;;;;;13.50;9.60;;;13.50;1.00;;;;;;4995694;28;20427;-55
2022/09/20 08:31:11;;;;;;;11.17;8.50;;;13.30;1.00;;;;;;5009832;28;20452;-57
2022/09/20 08:33:38;;;;;;;11.83;9.53;;;13.20;1.00;;;;;;4997253;28;20448;-57
2022/09/20 08:36:05;;;;;;;15.53;10.23;;;13.20;1.00;;;;;;4998471;28;20498;-52
2022/09/20 08:38:31;;;;;;;11.90;9.50;;;13.10;1.00;;;;;;5003450;28;20447;-57
2022/09/20 08:41:03;;;;;;;14.97;10.57;;;13.40;1.00;;;;;;4998209;28;20468;-55
2022/09/20 08:43:37;;;;;;;8.27;7.20;;;13.70;1.00;;;;;;5001739;28;20478;-54
2022/09/20 08:46:05;;;;;;;9.00;7.23;;;14.00;1.00;;;;;;4995754;28;20926;-54
2022/09/20 08:48:32;;;;;;;8.50;6.77;;;14.10;1.00;;;;;;4997077;28;20481;-54
2022/09/20 08:51:00;;;;;;;8.80;6.20;;;14.00;1.00;;;;;;4996912;28;20862;-53
2022/09/20 08:53:27;;;;;;;9.23;6.00;;;14.20;1.00;;;;;;4996824;28;20814;-55
2022/09/20 08:55:58;;;;;;;10.20;6.30;;;14.20;1.00;;;;;;4996340;28;21022;-55
2022/09/20 08:58:26;;;;;;;13.73;6.83;;;14.10;1.00;;;;;;4998438;28;20475;-54
2022/09/20 09:00:54;;;;;;;7.70;6.50;;;14.20;1.00;;;;;;5012137;28;20481;-55
2022/09/20 09:03:20;;;;;;;7.20;5.70;;;14.40;1.00;;;;;;5014999;28;20448;-55
2022/09/20 09:05:57;;;;;;;7.50;5.40;;;14.50;1.00;;;;;;5012088;28;20419;-57
2022/09/20 09:08:36;;;;;;;8.93;6.30;;;14.60;1.00;;;;;;5016407;28;20208;-54
2022/09/20 09:11:07;;;;;;;5.83;5.33;;;14.50;1.00;;;;;;5016413;28;20427;-53
2022/09/20 09:13:54;;;;;;;7.20;5.57;;;14.40;1.00;;;;;;5009061;28;20442;-55
2022/09/20 09:16:22;;;;;;;8.43;4.67;;;14.50;1.00;;;;;;4990960;28;20945;-55
2022/09/20 09:18:49;;;;;;;6.30;5.40;;;14.60;1.00;;;;;;4997968;28;20450;-57
2022/09/20 09:21:17;;;;;;;8.17;4.80;;;14.60;1.00;;;;;;5005488;28;20423;-57
2022/09/20 09:23:57;;;;;;;6.77;5.00;;;14.60;1.00;;;;;;4992698;28;20544;-56
2022/09/20 09:26:24;;;;;;;6.70;4.83;;;14.50;1.00;;;;;;4991015;28;20498;-56
2022/09/20 09:29:22;;;;;;;6.50;5.00;;;14.70;1.00;;;;;;4996316;28;20478;-54
2022/09/20 09:31:50;;;;;;;7.50;5.60;;;14.60;1.00;;;;;;4944094;28;20561;-56
2022/09/20 09:34:32;;;;;;;6.87;5.77;;;14.80;1.00;;;;;;4990352;28;20454;-55
2022/09/20 09:36:58;;;;;;;10.00;5.53;;;14.80;1.00;;;;;;4975980;28;20445;-54
2022/09/20 09:39:37;;;;;;;5.97;5.37;;;14.90;1.00;;;;;;4992525;28;20495;-56
2022/09/20 09:42:25;;;;;;;8.83;6.40;;;14.80;1.00;;;;;;4999576;28;20539;-54
2022/09/20 09:44:50;;;;;;;10.93;7.33;;;14.70;1.00;;;;;;5002414;28;20430;-54
2022/09/20 09:47:30;;;;;;;6.70;5.43;;;14.80;1.00;;;;;;5001943;28;20839;-54
2022/09/20 09:49:59;;;;;;;7.23;5.67;;;15.00;1.00;;;;;;4988167;28;20197;-56
2022/09/20 09:52:31;;;;;;;7.27;6.50;;;15.10;1.00;;;;;;4973933;28;20540;-57
2022/09/20 09:54:58;;;;;;;10.90;6.50;;;15.00;1.00;;;;;;4999214;28;20444;-56
2022/09/20 09:57:52;;;;;;;10.27;5.17;;;14.90;1.00;;;;;;5007134;28;20466;-57
2022/09/20 10:00:25;;;;;;;6.40;4.57;;;14.60;1.00;;;;;;4986422;28;21610;-56
2022/09/20 10:03:35;;;;;;;9.30;5.47;;;14.40;1.00;;;;;;4988894;28;20427;-56
2022/09/20 10:06:18;;;;;;;6.57;4.97;;;14.40;1.00;;;;;;4951463;29;20960;-54
2022/09/20 10:09:04;;;;;;;6.30;4.93;;;14.40;1.00;;;;;;4988523;28;20530;-58
2022/09/20 10:11:55;;;;;;;4.60;4.20;;;14.50;1.00;;;;;;4991999;28;20534;-56
2022/09/20 10:14:48;;;;;;;4.83;4.30;;;14.80;1.00;;;;;;4999145;28;20562;-53
2022/09/20 10:17:33;;;;;;;5.50;4.00;;;15.00;1.00;;;;;;4992431;28;20449;-56
2022/09/20 10:20:20;;;;;;;6.67;3.50;;;15.10;1.00;;;;;;4996093;28;20404;-57
2022/09/20 10:23:19;;;;;;;4.83;3.50;;;15.30;1.00;;;;;;4998522;28;20477;-55
2022/09/20 10:26:06;;;;;;;3.70;3.07;;;15.60;1.00;;;;;;4990969;28;20436;-57
2022/09/20 10:28:58;;;;;;;3.83;3.30;;;16.00;1.00;;;;;;4991149;28;20449;-58
2022/09/20 10:31:39;;;;;;;2.97;2.70;;;16.10;1.00;;;;;;4991542;28;20474;-56
2022/09/20 10:34:46;;;;;;;7.30;3.20;;;16.40;1.00;;;;;;4990730;28;20501;-56
2022/09/20 10:37:53;;;;;;;2.60;2.40;;;16.30;1.00;;;;;;4996011;28;20834;-55
2022/09/20 10:40:25;;;;;;;4.20;2.20;;;16.40;1.00;;;;;;4998966;28;20484;-56
2022/09/20 10:43:14;;;;;;;2.67;2.13;;;16.40;1.00;;;;;;4989735;28;21168;-55
2022/09/20 10:45:54;;;;;;;3.40;2.50;;;16.50;1.00;;;;;;4996378;28;20951;-56
2022/09/20 10:48:50;;;;;;;3.80;3.40;;;16.40;1.00;;;;;;4996807;28;20460;-54
2022/09/20 10:51:43;;;;;;;5.30;3.93;;;16.30;1.00;;;;;;4988678;28;20449;-55
2022/09/20 10:54:31;;;;;;;4.60;3.23;;;16.10;1.00;;;;;;4996803;28;20440;-56
2022/09/20 10:57:19;;;;;;;7.27;3.80;;;15.90;1.00;;;;;;4990070;28;20415;-55
2022/09/20 11:00:22;;;;;;;5.70;3.73;;;15.60;1.00;;;;;;5004194;28;20507;-53
2022/09/20 11:03:16;;;;;;;4.20;3.47;;;15.70;1.00;;;;;;4990304;28;20455;-57
2022/09/20 11:06:08;;;;;;;3.97;2.83;;;16.00;1.00;;;;;;4991114;28;20597;-55
2022/09/20 11:08:37;;;;;;;2.83;2.50;;;16.50;1.00;;;;;;4986975;28;20420;-55
2022/09/20 11:11:33;;;;;;;2.93;2.60;;;16.60;1.00;;;;;;4989614;28;20441;-54
2022/09/20 11:14:09;;;;;;;4.57;3.20;;;16.80;1.00;;;;;;4983352;28;20450;-54
2022/09/20 11:16:59;;;;;;;3.83;3.00;;;16.90;1.00;;;;;;4990899;28;20456;-57
2022/09/20 11:19:27;;;;;;;4.33;3.00;;;17.00;1.00;;;;;;4993031;28;20933;-56
2022/09/20 11:22:04;;;;;;;5.30;2.80;;;16.90;1.00;;;;;;4988069;28;20469;-54
2022/09/20 11:24:33;;;;;;;2.80;2.60;;;17.00;1.00;;;;;;4990567;28;20535;-54
2022/09/20 11:27:28;;;;;;;4.60;2.73;;;17.40;1.00;;;;;;4999102;28;20474;-57
2022/09/20 11:30:13;;;;;;;3.10;2.80;;;17.60;1.00;;;;;;4985654;28;20472;-55
2022/09/20 11:33:20;;;;;;;4.70;2.63;;;17.80;1.00;;;;;;4988546;28;20445;-54
2022/09/20 11:35:50;;;;;;;2.70;2.10;;;17.80;1.00;;;;;;4989507;28;20445;-56
2022/09/20 11:38:23;;;;;;;4.33;2.00;;;17.40;1.00;;;;;;4988614;28;21971;-55
2022/09/20 11:40:55;;;;;;;1.83;1.60;;;17.40;1.00;;;;;;4990122;28;20448;-56
2022/09/20 11:43:22;;;;;;;3.57;2.10;;;17.40;1.00;;;;;;4987181;28;20513;-57
2022/09/20 11:45:54;;;;;;;3.77;2.23;;;17.40;1.00;;;;;;4988001;28;20461;-55
2022/09/20 11:48:28;;;;;;;4.30;2.37;;;17.30;1.00;;;;;;4990123;28;20507;-53
2022/09/20 11:51:13;;;;;;;2.80;1.93;;;17.10;1.00;;;;;;4992429;28;20960;-54
2022/09/20 11:53:48;;;;;;;3.40;2.33;;;17.40;1.00;;;;;;4992096;28;20467;-56
2022/09/20 11:56:20;;;;;;;5.87;2.50;;;17.30;1.00;;;;;;4990671;28;20456;-54
2022/09/20 11:58:52;;;;;;;3.57;2.67;;;17.20;1.00;;;;;;4989188;28;20468;-57
2022/09/20 12:01:39;;;;;;;2.57;2.20;;;17.20;1.00;;;;;;4988560;28;20527;-54
2022/09/20 12:04:24;;;;;;;2.87;2.27;;;16.60;1.00;;;;;;4994738;28;21046;-54
2022/09/20 12:07:24;;;;;;;2.87;2.57;;;16.00;1.00;;;;;;4993666;28;20805;-55
2022/09/20 12:09:53;;;;;;;3.23;2.20;;;15.80;1.00;;;;;;4989996;28;20468;-54
2022/09/20 12:12:27;;;;;;;2.40;1.97;;;16.20;1.00;;;;;;4989590;28;20431;-55
2022/09/20 12:14:55;;;;;;;2.33;2.10;;;16.80;1.00;;;;;;4987959;28;20471;-57
2022/09/20 12:17:46;;;;;;;2.20;1.63;;;17.40;1.00;;;;;;4986406;28;20591;-58
2022/09/20 12:20:33;;;;;;;3.40;2.27;;;17.90;1.00;;;;;;4989718;28;20444;-56
2022/09/20 12:23:36;;;;;;;2.83;2.03;;;17.80;1.00;;;;;;4991368;28;20446;-55
2022/09/20 12:26:04;;;;;;;2.20;1.47;;;17.50;1.00;;;;;;4990589;28;20608;-56
2022/09/20 12:28:38;;;;;;;2.43;1.80;;;17.60;1.00;;;;;;4973165;28;20452;-54
2022/09/20 12:31:27;;;;;;;4.53;1.70;;;17.90;1.00;;;;;;4989886;28;20516;-56
2022/09/20 12:34:01;;;;;;;4.13;2.33;;;17.60;1.00;;;;;;4989078;28;20594;-56
2022/09/20 12:36:54;;;;;;;2.37;1.70;;;16.70;1.00;;;;;;4990684;28;20432;-54
2022/09/20 12:39:28;;;;;;;3.10;2.40;;;16.70;1.00;;;;;;4973072;28;20552;-56
2022/09/20 12:42:01;;;;;;;3.50;1.80;;;16.70;1.00;;;;;;4989401;28;20441;-56
2022/09/20 12:44:55;;;;;;;2.60;2.37;;;16.80;1.00;;;;;;4988685;28;20448;-56
2022/09/20 12:47:27;;;;;;;2.63;2.43;;;16.60;1.00;;;;;;4954693;28;20453;-54
2022/09/20 12:52:59;;;;;;;3.07;2.00;;;16.10;1.00;;;;;;4993814;28;20452;-56
2022/09/20 12:55:44;;;;;;;7.10;2.53;;;16.00;1.00;;;;;;4994186;28;20507;-53
2022/09/20 12:58:13;;;;;;;3.23;2.37;;;16.10;1.00;;;;;;4993589;28;20456;-52
2022/09/20 13:00:53;;;;;;;4.40;2.40;;;16.10;1.00;;;;;;4993616;28;20499;-58
2022/09/20 13:03:35;;;;;;;3.00;1.80;;;16.10;1.00;;;;;;4993500;28;20423;-53
2022/09/20 13:06:07;;;;;;;4.73;2.10;;;16.30;1.00;;;;;;4993656;28;20433;-58
2022/09/20 13:08:54;;;;;;;2.43;2.23;;;16.30;1.00;;;;;;4993724;28;20449;-56
2022/09/20 13:11:19;;;;;;;3.10;2.10;;;16.50;1.00;;;;;;4993354;28;20528;-55
2022/09/20 13:13:57;;;;;;;2.17;1.60;;;16.80;1.00;;;;;;4993552;28;20589;-52
2022/09/20 13:16:46;;;;;;;5.40;2.27;;;16.80;1.00;;;;;;4993357;28;20528;-55
2022/09/20 13:19:43;;;;;;;5.20;2.10;;;16.80;1.00;;;;;;4993300;28;20500;-54
2022/09/20 13:22:47;;;;;;;7.10;2.03;;;17.10;1.00;;;;;;4993568;28;20437;-56
2022/09/20 13:25:16;;;;;;;4.73;1.80;;;17.20;1.00;;;;;;4893723;29;20461;-55
2022/09/20 13:28:00;;;;;;;3.40;2.00;;;17.40;1.00;;;;;;4895105;29;20500;-55
2022/09/20 13:30:31;;;;;;;4.40;2.10;;;17.30;1.00;;;;;;4954983;28;20457;-54
2022/09/20 13:33:13;;;;;;;1.73;1.50;;;17.30;1.00;;;;;;4995665;28;20441;-56
2022/09/20 13:35:40;;;;;;;2.30;1.57;;;17.60;1.00;;;;;;5012789;28;20437;-54
2022/09/20 13:38:08;;;;;;;2.50;1.57;;;17.90;1.00;;;;;;5012587;28;20460;-54
2022/09/20 13:40:39;;;;;;;3.60;2.07;;;17.80;1.00;;;;;;5012755;28;20440;-53
2022/09/20 13:43:15;;;;;;;2.90;1.70;;;17.60;1.00;;;;;;5006842;28;20445;-54
2022/09/20 13:45:42;;;;;;;4.77;1.87;;;17.40;1.00;;;;;;5012976;28;20437;-56
2022/09/20 13:48:08;;;;;;;2.27;1.50;;;17.40;1.00;;;;;;5012697;28;20436;-56
2022/09/20 13:50:36;;;;;;;1.53;1.20;;;17.40;1.00;;;;;;5012574;28;20441;-56
2022/09/20 13:53:14;;;;;;;2.77;1.13;;;17.30;1.00;;;;;;5008681;28;20456;-56
2022/09/20 13:55:41;;;;;;;1.53;1.43;;;17.50;1.00;;;;;;4991943;28;20445;-57
2022/09/20 13:58:15;;;;;;;1.90;1.30;;;17.50;1.00;;;;;;4975012;28;20548;-54
2022/09/20 14:01:30;;;;;;;0.80;0.73;;;17.80;1.00;;;;;;4991849;28;20429;-56
2022/09/20 14:04:14;;;;;;;1.33;0.80;;;17.10;1.00;;;;;;4949941;28;20515;-55
2022/09/20 14:06:41;;;;;;;0.50;0.50;;;16.30;1.00;;;;;;4992898;28;20816;-56